createdAt,value
2018-09-05T00:00:15.135Z,59.30
2018-09-05T00:02:43.494Z,59.30
2018-09-05T00:05:11.903Z,59.30
2018-09-05T00:07:40.343Z,59.50
2018-09-05T00:10:08.676Z,60.10
2018-09-05T00:12:37.025Z,60.20
2018-09-05T00:15:05.643Z,60.20
2018-09-05T00:17:34.090Z,60.20
2018-09-05T00:20:02.896Z,60.10
2018-09-05T00:22:31.289Z,60.10
2018-09-05T00:24:59.636Z,60.00
2018-09-05T00:27:27.959Z,60.00
2018-09-05T00:29:56.363Z,60.00
2018-09-05T00:32:24.807Z,60.10
2018-09-05T00:34:53.150Z,60.30
2018-09-05T00:37:22.254Z,60.40
2018-09-05T00:39:50.622Z,60.60
2018-09-05T00:42:19.054Z,60.60
2018-09-05T00:44:47.386Z,60.70
2018-09-05T00:47:15.796Z,60.80
2018-09-05T00:49:44.194Z,61.00
2018-09-05T00:52:12.988Z,61.00
2018-09-05T00:54:41.378Z,61.00
2018-09-05T00:57:09.708Z,61.00
2018-09-05T00:59:38.059Z,61.00
2018-09-05T01:02:06.460Z,61.10
2018-09-05T01:04:34.859Z,61.00
2018-09-05T01:07:14.586Z,61.00
2018-09-05T01:09:43.006Z,61.00
2018-09-05T01:12:11.331Z,61.10
2018-09-05T01:14:39.700Z,61.40
2018-09-05T01:17:08.034Z,61.60
2018-09-05T01:19:36.435Z,62.10
2018-09-05T01:22:04.774Z,62.10
2018-09-05T01:24:33.142Z,61.60
2018-09-05T01:27:01.499Z,61.50
2018-09-05T01:29:29.892Z,61.40
2018-09-05T01:31:58.302Z,61.70
2018-09-05T01:34:26.684Z,61.60
2018-09-05T01:36:55.030Z,61.90
2018-09-05T01:39:23.386Z,61.90
2018-09-05T01:41:51.819Z,62.00
2018-09-05T01:44:20.254Z,62.10
2018-09-05T01:46:48.598Z,62.20
2018-09-05T01:49:17.094Z,62.70
2018-09-05T01:51:45.447Z,63.30
2018-09-05T01:54:15.804Z,63.70
2018-09-05T01:56:44.754Z,63.50
2018-09-05T01:59:13.107Z,63.50
2018-09-05T02:01:41.419Z,63.30
2018-09-05T02:04:09.772Z,62.90
2018-09-05T02:06:38.116Z,62.80
2018-09-05T02:09:10.174Z,62.60
2018-09-05T02:11:38.510Z,62.50
2018-09-05T02:14:06.850Z,62.50
2018-09-05T02:16:35.208Z,62.70
2018-09-05T02:19:03.566Z,64.00
2018-09-05T02:21:32.021Z,63.70
2018-09-05T02:24:00.406Z,63.50
2018-09-05T02:26:29.321Z,63.40
2018-09-05T02:28:57.771Z,63.40
2018-09-05T02:31:26.474Z,64.00
2018-09-05T02:33:54.836Z,64.30
2018-09-05T02:36:23.175Z,64.40
2018-09-05T02:38:51.535Z,64.70
2018-09-05T02:41:19.932Z,64.90
2018-09-05T02:43:53.464Z,64.80
2018-09-05T02:46:22.010Z,64.70
2018-09-05T02:48:50.950Z,64.70
2018-09-05T02:51:19.290Z,64.80
2018-09-05T02:53:47.675Z,64.80
2018-09-05T02:56:16.022Z,64.80
2018-09-05T02:58:44.432Z,64.40
2018-09-05T03:01:12.743Z,64.60
2018-09-05T03:03:41.092Z,65.50
2018-09-05T03:06:09.421Z,65.60
2018-09-05T03:08:37.765Z,65.80
2018-09-05T03:11:06.093Z,65.80
2018-09-05T03:13:34.449Z,65.70
2018-09-05T03:16:02.833Z,65.60
2018-09-05T03:18:31.167Z,65.30
2018-09-05T03:20:59.494Z,65.20
2018-09-05T03:23:27.935Z,65.10
2018-09-05T03:25:56.288Z,64.70
2018-09-05T03:28:24.615Z,64.40
2018-09-05T03:30:52.930Z,64.10
2018-09-05T03:33:21.258Z,63.90
2018-09-05T03:35:49.631Z,63.60
2018-09-05T03:38:17.971Z,63.50
2018-09-05T03:40:46.837Z,63.60
2018-09-05T03:43:15.184Z,63.60
2018-09-05T03:45:43.506Z,63.70
2018-09-05T03:48:11.862Z,63.60
2018-09-05T03:50:40.202Z,63.50
2018-09-05T03:53:08.507Z,63.50
2018-09-05T03:55:36.861Z,63.70
2018-09-05T03:58:05.295Z,63.80
2018-09-05T04:00:35.251Z,63.50
2018-09-05T04:03:04.736Z,63.90
2018-09-05T04:05:33.211Z,64.20
2018-09-05T04:08:02.277Z,64.20
2018-09-05T04:10:30.660Z,64.50
2018-09-05T04:12:59.002Z,64.60
2018-09-05T04:15:27.339Z,64.60
2018-09-05T04:17:55.665Z,64.30
2018-09-05T04:20:23.999Z,64.40
2018-09-05T04:22:52.319Z,64.50
2018-09-05T04:25:20.691Z,64.50
2018-09-05T04:27:49.139Z,64.30
2018-09-05T04:30:17.499Z,64.40
2018-09-05T04:32:45.808Z,64.40
2018-09-05T04:35:14.132Z,64.40
2018-09-05T04:37:42.497Z,64.50
2018-09-05T04:40:11.704Z,64.30
2018-09-05T04:42:40.001Z,64.10
2018-09-05T04:45:08.397Z,64.50
2018-09-05T04:47:36.979Z,65.60
2018-09-05T04:50:05.429Z,65.80
2018-09-05T04:52:33.835Z,66.40
2018-09-05T04:55:02.124Z,66.10
2018-09-05T04:57:30.481Z,66.00
2018-09-05T04:59:58.819Z,65.50
2018-09-05T05:02:27.194Z,65.30
2018-09-05T05:04:55.581Z,64.80
2018-09-05T05:07:24.013Z,64.80
2018-09-05T05:09:52.354Z,64.50
2018-09-05T05:12:20.751Z,64.20
2018-09-05T05:14:49.116Z,64.10
2018-09-05T05:17:17.492Z,64.10
2018-09-05T05:19:46.244Z,64.20
2018-09-05T05:22:14.689Z,64.20
2018-09-05T05:24:43.027Z,64.30
2018-09-05T05:27:11.380Z,65.40
2018-09-05T05:29:39.726Z,65.90
2018-09-05T05:32:08.041Z,65.90
2018-09-05T05:34:36.421Z,65.90
2018-09-05T05:37:04.948Z,65.80
2018-09-05T05:39:33.295Z,65.70
2018-09-05T05:42:01.672Z,65.60
2018-09-05T05:44:30.000Z,65.60
2018-09-05T05:46:58.359Z,65.60
2018-09-05T05:49:26.695Z,65.70
2018-09-05T05:51:55.051Z,65.70
2018-09-05T05:54:23.527Z,66.30
2018-09-05T05:56:51.929Z,65.40
2018-09-05T05:59:20.838Z,65.20
2018-09-05T06:01:49.211Z,65.20
2018-09-05T06:04:17.658Z,65.00
2018-09-05T06:06:46.153Z,64.90
2018-09-05T06:09:14.466Z,64.90
2018-09-05T06:11:42.873Z,64.90
2018-09-05T06:14:11.217Z,65.20
2018-09-05T06:16:39.551Z,65.40
2018-09-05T06:19:07.963Z,65.60
2018-09-05T06:21:36.385Z,65.10
2018-09-05T06:24:05.339Z,65.20
2018-09-05T06:26:33.687Z,64.80
2018-09-05T06:29:02.061Z,64.60
2018-09-05T06:31:30.963Z,64.40
2018-09-05T06:34:00.565Z,64.20
2018-09-05T06:36:29.134Z,63.80
2018-09-05T06:38:57.534Z,63.40
2018-09-05T06:41:25.924Z,63.20
2018-09-05T06:43:54.262Z,63.30
2018-09-05T06:46:22.713Z,63.40
2018-09-05T06:48:51.139Z,63.50
2018-09-05T06:51:19.480Z,63.50
2018-09-05T06:53:47.878Z,63.30
2018-09-05T06:56:16.200Z,62.90
2018-09-05T06:58:44.566Z,63.00
2018-09-05T07:01:12.937Z,63.20
2018-09-05T07:03:41.389Z,63.40
2018-09-05T07:06:09.641Z,63.90
2018-09-05T07:08:37.995Z,64.00
2018-09-05T07:11:06.348Z,64.40
2018-09-05T07:13:34.688Z,64.40
2018-09-05T07:16:03.035Z,64.20
2018-09-05T07:18:31.716Z,63.20
2018-09-05T07:21:05.683Z,63.10
2018-09-05T07:23:28.388Z,63.30
2018-09-05T07:25:57.539Z,62.50
2018-09-05T07:28:25.904Z,61.70
2018-09-05T07:30:54.366Z,61.50
2018-09-05T07:33:22.685Z,60.90
2018-09-05T07:35:51.624Z,60.30
2018-09-05T07:38:21.005Z,60.00
2018-09-05T07:40:49.341Z,60.10
2018-09-05T07:43:17.716Z,60.20
2018-09-05T07:45:46.055Z,58.90
2018-09-05T07:48:14.420Z,58.70
2018-09-05T07:50:42.824Z,58.50
2018-09-05T07:53:11.334Z,58.40
2018-09-05T07:55:39.692Z,57.40
2018-09-05T07:58:08.024Z,57.00
2018-09-05T08:00:36.389Z,57.00
2018-09-05T08:03:04.856Z,55.80
2018-09-05T08:05:34.026Z,55.20
2018-09-05T08:08:02.365Z,55.20
2018-09-05T08:10:30.681Z,54.00
2018-09-05T08:12:59.140Z,54.00
2018-09-05T08:15:27.614Z,53.80
2018-09-05T08:17:55.977Z,53.10
2018-09-05T08:20:24.304Z,52.50
2018-09-05T08:22:52.624Z,52.50
2018-09-05T08:25:20.924Z,52.30
2018-09-05T08:27:49.241Z,51.90
2018-09-05T08:30:17.709Z,51.40
2018-09-05T08:32:46.048Z,51.80
2018-09-05T08:35:14.537Z,50.60
2018-09-05T08:37:43.609Z,49.40
2018-09-05T08:40:11.972Z,49.90
2018-09-05T08:42:40.325Z,49.20
2018-09-05T08:45:08.787Z,48.70
2018-09-05T08:47:37.752Z,47.80
2018-09-05T08:50:06.138Z,47.10
2018-09-05T08:52:35.206Z,46.20
2018-09-05T08:55:03.535Z,46.20
2018-09-05T08:57:31.937Z,46.30
2018-09-05T09:00:00.260Z,45.70
2018-09-05T09:02:29.252Z,44.60
2018-09-05T09:04:57.639Z,45.40
2018-09-05T09:07:25.909Z,44.00
2018-09-05T09:09:54.620Z,44.10
2018-09-05T09:12:22.952Z,44.20
2018-09-05T09:14:51.844Z,43.90
2018-09-05T09:17:20.933Z,43.00
2018-09-05T09:19:49.294Z,43.00
2018-09-05T09:22:17.784Z,42.80
2018-09-05T09:24:46.184Z,42.00
2018-09-05T09:27:14.524Z,42.50
2018-09-05T09:29:42.871Z,41.30
2018-09-05T09:32:11.194Z,41.60
2018-09-05T09:34:39.539Z,40.90
2018-09-05T09:37:07.877Z,40.40
2018-09-05T09:39:36.200Z,40.50
2018-09-05T09:42:04.944Z,39.80
2018-09-05T09:44:33.259Z,39.90
2018-09-05T09:47:01.605Z,40.50
2018-09-05T09:49:29.956Z,39.90
2018-09-05T09:52:03.602Z,40.20
2018-09-05T09:54:31.985Z,39.20
2018-09-05T09:57:00.388Z,38.00
2018-09-05T09:59:28.743Z,37.40
2018-09-05T10:04:04.957Z,35.40
2018-09-05T10:06:38.541Z,35.50
2018-09-05T10:09:13.391Z,35.00
2018-09-05T10:11:48.017Z,35.20
2018-09-05T10:14:21.787Z,34.60
2018-09-05T10:16:55.999Z,33.80
2018-09-05T10:19:24.346Z,34.00
2018-09-05T10:21:54.156Z,33.80
2018-09-05T10:24:22.588Z,33.80
2018-09-05T10:26:51.298Z,34.40
2018-09-05T10:29:19.658Z,34.40
2018-09-05T10:31:48.251Z,33.30
2018-09-05T10:34:16.528Z,32.50
2018-09-05T10:36:45.396Z,33.40
2018-09-05T10:39:13.776Z,32.90
2018-09-05T10:41:42.118Z,32.50
2018-09-05T10:44:10.598Z,33.20
2018-09-05T10:46:39.141Z,32.30
2018-09-05T10:49:07.963Z,33.00
2018-09-05T10:51:41.540Z,32.30
2018-09-05T10:54:10.038Z,33.50
2018-09-05T10:56:38.503Z,33.80
2018-09-05T10:59:06.977Z,33.50
2018-09-05T11:01:35.328Z,35.50
2018-09-05T11:04:03.654Z,33.10
2018-09-05T11:06:32.069Z,32.70
2018-09-05T11:09:00.367Z,33.20
2018-09-05T11:11:28.802Z,34.30
2018-09-05T11:13:57.148Z,34.30
2018-09-05T11:16:25.501Z,34.40
2018-09-05T11:18:53.863Z,35.40
2018-09-05T11:21:22.341Z,35.00
2018-09-05T11:23:50.592Z,35.50
2018-09-05T11:26:18.968Z,35.60
2018-09-05T11:28:47.327Z,34.90
2018-09-05T11:31:15.795Z,33.90
2018-09-05T11:33:44.147Z,33.80
2018-09-05T11:36:12.499Z,33.00
2018-09-05T11:38:40.869Z,32.60
2018-09-05T11:41:09.426Z,32.30
2018-09-05T11:43:38.033Z,33.00
2018-09-05T11:46:06.507Z,32.50
2018-09-05T11:48:34.834Z,31.80
2018-09-05T11:51:03.200Z,32.80
2018-09-05T11:53:31.594Z,32.60
2018-09-05T11:55:59.945Z,32.70
2018-09-05T11:58:28.314Z,33.10
2018-09-05T12:00:56.737Z,33.40
2018-09-05T12:03:25.132Z,33.20
2018-09-05T12:05:53.451Z,33.60
2018-09-05T12:08:21.843Z,34.30
2018-09-05T12:10:50.209Z,34.60
2018-09-05T12:13:18.573Z,34.40
2018-09-05T12:15:46.914Z,33.30
2018-09-05T12:18:15.301Z,32.80
2018-09-05T12:20:43.678Z,33.40
2018-09-05T12:23:12.076Z,33.10
2018-09-05T12:25:40.423Z,33.00
2018-09-05T12:28:08.774Z,32.60
2018-09-05T12:30:37.223Z,33.50
2018-09-05T12:33:05.591Z,33.30
2018-09-05T12:35:33.944Z,33.40
2018-09-05T12:38:02.746Z,33.20
2018-09-05T12:40:31.156Z,33.30
2018-09-05T12:42:59.593Z,32.50
2018-09-05T12:45:27.956Z,32.00
2018-09-05T12:47:56.316Z,32.10
2018-09-05T12:50:24.670Z,32.20
2018-09-05T12:52:53.194Z,32.70
2018-09-05T12:55:22.261Z,32.50
2018-09-05T12:57:50.629Z,31.90
2018-09-05T13:00:18.972Z,31.80
2018-09-05T13:02:47.336Z,32.10
2018-09-05T13:05:16.508Z,31.80
2018-09-05T13:07:44.872Z,32.10
2018-09-05T13:10:13.214Z,31.60
2018-09-05T13:12:41.938Z,31.10
2018-09-05T13:15:10.435Z,29.40
2018-09-05T13:17:39.435Z,27.40
2018-09-05T13:20:07.764Z,27.30
2018-09-05T13:22:36.124Z,27.80
2018-09-05T13:25:05.374Z,28.40
2018-09-05T13:27:33.894Z,28.20
2018-09-05T13:30:02.410Z,29.00
2018-09-05T13:32:30.878Z,28.70
2018-09-05T13:34:59.278Z,28.80
2018-09-05T13:37:27.802Z,28.90
2018-09-05T13:39:56.646Z,28.50
2018-09-05T13:42:24.988Z,29.00
2018-09-05T13:44:53.573Z,29.20
2018-09-05T13:47:21.933Z,29.60
2018-09-05T13:49:50.320Z,29.70
2018-09-05T13:52:19.732Z,30.00
2018-09-05T13:54:48.119Z,30.00
2018-09-05T13:57:16.457Z,30.20
2018-09-05T13:59:45.193Z,30.10
2018-09-05T14:02:13.554Z,30.80
2018-09-05T14:04:41.942Z,31.40
2018-09-05T14:07:10.319Z,30.60
2018-09-05T14:09:38.674Z,31.10
2018-09-05T14:12:07.050Z,31.40
2018-09-05T14:14:35.904Z,31.50
2018-09-05T14:17:04.252Z,31.20
2018-09-05T14:19:32.627Z,31.60
2018-09-05T14:22:01.032Z,31.50
2018-09-05T14:24:29.414Z,32.30
2018-09-05T14:26:58.256Z,32.40
2018-09-05T14:29:26.629Z,32.60
2018-09-05T14:31:54.992Z,32.10
2018-09-05T14:34:23.307Z,32.30
2018-09-05T14:36:51.686Z,31.90
2018-09-05T14:39:20.072Z,32.50
2018-09-05T14:41:48.386Z,30.30
2018-09-05T14:44:16.740Z,30.60
2018-09-05T14:46:45.120Z,30.90
2018-09-05T14:49:13.449Z,30.30
2018-09-05T14:51:42.001Z,30.20
2018-09-05T14:54:11.739Z,30.00
2018-09-05T14:56:40.063Z,30.20
2018-09-05T14:59:08.416Z,31.00
2018-09-05T15:01:36.894Z,30.80
2018-09-05T15:04:05.350Z,30.00
2018-09-05T15:06:33.814Z,31.20
2018-09-05T15:09:02.098Z,33.20
2018-09-05T15:11:30.428Z,32.20
2018-09-05T15:13:58.784Z,31.20
2018-09-05T15:16:27.155Z,31.30
2018-09-05T15:18:55.520Z,31.20
2018-09-05T15:21:23.857Z,31.70
2018-09-05T15:23:52.223Z,33.20
2018-09-05T15:26:20.565Z,35.90
2018-09-05T15:28:49.053Z,36.00
2018-09-05T15:31:17.316Z,37.40
2018-09-05T15:33:45.766Z,38.80
2018-09-05T15:36:14.111Z,35.50
2018-09-05T15:38:42.469Z,35.30
2018-09-05T15:41:10.867Z,40.30
2018-09-05T15:43:39.364Z,40.20
2018-09-05T15:46:07.756Z,37.60
2018-09-05T15:48:36.116Z,35.80
2018-09-05T15:51:04.548Z,37.50
2018-09-05T15:53:32.943Z,45.00
2018-09-05T15:56:01.331Z,45.10
2018-09-05T15:58:29.776Z,44.80
2018-09-05T16:00:58.117Z,44.70
2018-09-05T16:03:26.593Z,45.30
2018-09-05T16:05:54.915Z,45.70
2018-09-05T16:08:23.279Z,46.40
2018-09-05T16:10:51.692Z,47.60
2018-09-05T16:13:20.104Z,48.10
2018-09-05T16:15:48.489Z,49.30
2018-09-05T16:18:16.938Z,49.40
2018-09-05T16:20:45.315Z,49.40
2018-09-05T16:23:13.675Z,50.00
2018-09-05T16:25:42.787Z,50.40
2018-09-05T16:28:11.158Z,50.90
2018-09-05T16:30:40.269Z,51.20
2018-09-05T16:33:08.605Z,51.00
2018-09-05T16:35:37.112Z,51.10
2018-09-05T16:38:05.452Z,51.50
2018-09-05T16:40:33.828Z,52.00
2018-09-05T16:43:02.287Z,52.30
2018-09-05T16:45:30.707Z,52.30
2018-09-05T16:47:59.096Z,52.40
2018-09-05T16:50:27.456Z,52.30
2018-09-05T16:52:55.821Z,52.50
2018-09-05T16:55:24.299Z,53.00
2018-09-05T16:57:52.636Z,53.50
2018-09-05T17:00:20.996Z,53.80
2018-09-05T17:02:49.392Z,54.00
2018-09-05T17:05:17.736Z,54.20
2018-09-05T17:07:46.129Z,52.30
2018-09-05T17:10:15.336Z,50.60
2018-09-05T17:12:43.779Z,51.70
2018-09-05T17:15:12.336Z,54.00
2018-09-05T17:17:40.728Z,54.20
2018-09-05T17:20:09.132Z,54.20
2018-09-05T17:22:37.489Z,52.20
2018-09-05T17:25:05.865Z,51.30
2018-09-05T17:27:34.203Z,50.00
2018-09-05T17:30:02.705Z,49.30
2018-09-05T17:32:31.059Z,51.60
2018-09-05T17:34:59.394Z,52.20
2018-09-05T17:37:27.719Z,53.40
2018-09-05T17:39:56.222Z,53.60
2018-09-05T17:42:24.610Z,53.50
2018-09-05T17:44:52.979Z,53.50
2018-09-05T17:49:56.735Z,53.30
2018-09-05T17:52:25.077Z,51.60
2018-09-05T17:54:53.457Z,50.20
2018-09-05T17:57:21.956Z,48.60
2018-09-05T17:59:50.296Z,50.60
2018-09-05T18:02:18.762Z,51.00
2018-09-05T18:04:47.100Z,50.40
2018-09-05T18:07:16.273Z,50.50
2018-09-05T18:09:44.784Z,51.80
2018-09-05T18:12:13.075Z,52.80
2018-09-05T18:14:41.846Z,53.00
2018-09-05T18:17:10.207Z,51.70
2018-09-05T18:19:38.772Z,51.10
2018-09-05T18:22:07.128Z,51.00
2018-09-05T18:24:35.539Z,50.90
2018-09-05T18:27:03.914Z,51.30
2018-09-05T18:29:32.240Z,51.10
2018-09-05T18:32:00.743Z,50.80
2018-09-05T18:34:29.105Z,51.60
2018-09-05T18:36:57.529Z,52.00
2018-09-05T18:39:26.630Z,52.00
2018-09-05T18:41:54.950Z,52.00
2018-09-05T18:44:23.341Z,52.00
2018-09-05T18:46:52.305Z,51.80
2018-09-05T18:49:21.294Z,51.80
2018-09-05T18:51:49.633Z,51.80
2018-09-05T18:54:18.086Z,51.70
2018-09-05T18:56:46.447Z,52.40
2018-09-05T18:59:14.832Z,52.60
2018-09-05T19:01:43.251Z,52.50
2018-09-05T19:04:12.111Z,52.80
2018-09-05T19:06:40.509Z,53.10
2018-09-05T19:09:12.110Z,53.20
2018-09-05T19:11:41.902Z,53.40
2018-09-05T19:14:11.476Z,53.80
2018-09-05T19:16:39.936Z,53.80
2018-09-05T19:19:08.316Z,53.70
2018-09-05T19:21:36.716Z,53.80
2018-09-05T19:24:05.106Z,54.20
2018-09-05T19:26:41.244Z,54.70
2018-09-05T19:29:11.018Z,54.70
2018-09-05T19:31:39.427Z,54.20
2018-09-05T19:34:08.288Z,53.90
2018-09-05T19:36:36.744Z,53.70
2018-09-05T19:39:07.327Z,53.70
2018-09-05T19:41:36.643Z,54.10
2018-09-05T19:44:05.806Z,54.10
2018-09-05T19:46:34.345Z,54.60
2018-09-05T19:49:02.771Z,55.00
2018-09-05T19:51:31.842Z,55.30
2018-09-05T19:54:00.280Z,55.70
2018-09-05T19:56:28.695Z,55.90
2018-09-05T19:58:57.742Z,56.00
2018-09-05T20:01:26.116Z,56.20
2018-09-05T20:03:54.455Z,56.40
2018-09-05T20:06:23.166Z,56.80
2018-09-05T20:08:51.644Z,57.00
2018-09-05T20:11:19.967Z,57.20
2018-09-05T20:13:48.331Z,57.30
2018-09-05T20:16:16.790Z,57.40
2018-09-05T20:18:45.119Z,57.90
2018-09-05T20:21:13.475Z,57.20
2018-09-05T20:23:41.829Z,57.30
2018-09-05T20:26:10.281Z,57.60
2018-09-05T20:28:38.727Z,58.10
2018-09-05T20:31:07.120Z,58.80
2018-09-05T20:33:35.474Z,58.70
2018-09-05T20:36:03.830Z,58.50
2018-09-05T20:38:32.207Z,58.30
2018-09-05T20:41:00.662Z,58.30
2018-09-05T20:43:29.175Z,58.40
2018-09-05T20:45:57.526Z,58.50
2018-09-05T20:48:25.881Z,58.60
2018-09-05T20:50:54.230Z,58.70
2018-09-05T20:53:22.602Z,58.90
2018-09-05T20:55:51.062Z,59.10
2018-09-05T20:58:19.404Z,59.40
2018-09-05T21:00:47.752Z,59.60
2018-09-05T21:03:16.097Z,60.00
2018-09-05T21:05:44.448Z,60.30
2018-09-05T21:08:12.839Z,60.20
2018-09-05T21:10:41.279Z,60.20
2018-09-05T21:13:09.644Z,60.20
2018-09-05T21:15:38.127Z,60.30
2018-09-05T21:18:10.912Z,60.30
2018-09-05T21:20:39.188Z,60.40
2018-09-05T21:23:07.511Z,60.50
2018-09-05T21:25:42.639Z,60.50
2018-09-05T21:28:11.011Z,61.00
2018-09-05T21:30:39.350Z,60.30
2018-09-05T21:33:07.696Z,60.20
2018-09-05T21:35:36.039Z,60.20
2018-09-05T21:38:04.569Z,60.20
2018-09-05T21:40:33.507Z,60.10
2018-09-05T21:43:01.907Z,60.60
2018-09-05T21:45:30.357Z,61.00
2018-09-05T21:47:58.700Z,61.70
2018-09-05T21:50:27.103Z,61.90
2018-09-05T21:52:55.518Z,63.00
2018-09-05T21:55:23.857Z,63.20
2018-09-05T21:57:52.260Z,63.60
2018-09-05T22:00:20.599Z,65.10
2018-09-05T22:02:48.961Z,65.00
2018-09-05T22:05:17.327Z,64.70
2018-09-05T22:07:45.724Z,64.20
2018-09-05T22:10:14.135Z,63.70
2018-09-05T22:12:42.523Z,63.20
2018-09-05T22:15:10.903Z,63.60
2018-09-05T22:17:40.015Z,63.40
2018-09-05T22:20:08.603Z,63.10
2018-09-05T22:22:36.973Z,63.00
2018-09-05T22:25:05.509Z,62.80
2018-09-05T22:27:33.890Z,62.70
2018-09-05T22:30:02.243Z,62.50
2018-09-05T22:32:30.578Z,62.40
2018-09-05T22:34:58.937Z,62.70
2018-09-05T22:37:27.304Z,62.60
2018-09-05T22:39:55.657Z,62.50
2018-09-05T22:42:24.025Z,62.30
2018-09-05T22:45:10.149Z,62.40
2018-09-05T22:50:02.702Z,62.70
2018-09-05T22:52:55.217Z,62.80
2018-09-05T22:57:53.614Z,62.30
2018-09-05T23:00:40.522Z,62.30
2018-09-05T23:03:20.198Z,63.90
2018-09-05T23:05:58.416Z,63.70
2018-09-05T23:08:38.386Z,63.70
2018-09-05T23:11:23.524Z,63.50
2018-09-05T23:15:04.845Z,63.70
2018-09-05T23:19:51.946Z,63.50
2018-09-05T23:22:20.314Z,63.60
2018-09-05T23:24:48.765Z,64.40
2018-09-05T23:27:17.104Z,64.70
2018-09-05T23:29:45.481Z,64.50
2018-09-05T23:32:13.837Z,64.30
2018-09-05T23:34:42.187Z,64.50
2018-09-05T23:37:11.131Z,64.60
2018-09-05T23:39:39.569Z,64.60
2018-09-05T23:42:07.881Z,64.80
2018-09-05T23:44:36.327Z,65.10
2018-09-05T23:47:04.971Z,65.00
2018-09-05T23:49:33.417Z,64.60
2018-09-05T23:52:01.781Z,64.30
2018-09-05T23:54:30.116Z,64.50
2018-09-05T23:56:59.075Z,64.60
2018-09-05T23:59:27.414Z,64.70
